Time;durP1;ratioP1;P1;durP2;ratioP2;P2;SDS_P1;SDS_P2;PMS_P1;PMS_P2;Temp;Humidity;BMP_temperature;BMP_pressure;BME280_temperature;BME280_humidity;BME280_pressure;Samples;Min_cycle;Max_cycle;Signal;HPM_P1;HPM_P2
2021/08/19 00:01:13;;;;;;;28.23;13.05;;;;;;;21.75;79.75;100331.71;1835382;78;21231;-61
2021/08/19 00:03:41;;;;;;;33.28;17.02;;;;;;;21.73;79.86;100331.84;1835581;78;21027;-61
2021/08/19 00:06:10;;;;;;;25.30;12.15;;;;;;;21.75;79.93;100339.75;1835719;78;21136;-61
2021/08/19 00:08:39;;;;;;;24.80;11.38;;;;;;;21.76;79.83;100336.94;1835746;78;21140;-61
2021/08/19 00:11:09;;;;;;;32.67;12.15;;;;;;;21.77;79.96;100333.75;1835657;78;21094;-61
2021/08/19 00:13:40;;;;;;;36.33;14.18;;;;;;;21.77;79.99;100326.55;1835509;78;21148;-61
2021/08/19 00:16:09;;;;;;;29.15;10.08;;;;;;;21.81;79.83;100332.47;1835560;78;21043;-61
2021/08/19 00:18:39;;;;;;;25.97;11.00;;;;;;;21.81;79.77;100338.33;1835645;78;21177;-61
2021/08/19 00:21:09;;;;;;;20.75;9.13;;;;;;;21.79;79.70;100337.97;1835597;78;21584;-61
2021/08/19 00:23:37;;;;;;;22.37;9.53;;;;;;;21.78;79.75;100328.72;1835671;78;21161;-61
2021/08/19 00:26:07;;;;;;;23.55;9.55;;;;;;;21.74;80.02;100335.36;1835531;78;21549;-61
2021/08/19 00:28:35;;;;;;;22.27;9.33;;;;;;;21.70;80.18;100350.04;1835609;78;21629;-61
2021/08/19 00:31:04;;;;;;;29.40;11.60;;;;;;;21.67;80.24;100351.66;1835697;78;21082;-61
2021/08/19 00:33:34;;;;;;;28.60;10.75;;;;;;;21.63;80.39;100359.63;1835635;78;21133;-61
2021/08/19 00:36:02;;;;;;;31.35;13.08;;;;;;;21.59;80.50;100371.95;1835629;78;21544;-61
2021/08/19 00:38:31;;;;;;;33.53;15.05;;;;;;;21.55;80.89;100371.05;1835555;78;21055;-61
2021/08/19 00:41:00;;;;;;;35.63;15.75;;;;;;;21.54;81.01;100364.85;1835592;78;21124;-61
2021/08/19 00:43:29;;;;;;;32.98;12.60;;;;;;;21.56;81.18;100374.93;1835599;78;21137;-61
2021/08/19 00:45:58;;;;;;;38.38;16.57;;;;;;;21.59;80.94;100367.93;1835695;78;21090;-61
2021/08/19 00:48:27;;;;;;;46.90;17.30;;;;;;;21.63;80.80;100360.46;1835727;78;21109;-61
2021/08/19 00:50:57;;;;;;;30.02;14.07;;;;;;;21.64;80.68;100359.48;1819668;76;21121;-60
2021/08/19 00:53:26;;;;;;;35.38;16.30;;;;;;;21.67;80.59;100362.37;1846425;78;21113;-59
2021/08/19 00:55:55;;;;;;;19.35;9.50;;;;;;;21.70;80.38;100359.41;1835568;78;21033;-61
2021/08/19 00:58:23;;;;;;;49.63;21.45;;;;;;;21.71;80.21;100367.31;1884457;76;21174;-61
2021/08/19 01:00:52;;;;;;;55.50;30.55;;;;;;;21.72;80.03;100372.17;1833835;78;21152;-61
2021/08/19 01:03:20;;;;;;;59.27;36.38;;;;;;;21.77;79.88;100373.95;1884429;76;21392;-62
2021/08/19 01:05:49;;;;;;;55.17;34.13;;;;;;;21.79;79.80;100384.02;1833832;78;21074;-61
2021/08/19 01:08:18;;;;;;;45.65;28.70;;;;;;;21.78;79.79;100384.53;1884427;76;21093;-61
2021/08/19 01:10:47;;;;;;;29.50;13.65;;;;;;;21.77;79.80;100376.63;1833889;78;21085;-61
2021/08/19 01:13:16;;;;;;;28.62;15.60;;;;;;;21.77;79.79;100376.63;1884483;76;21033;-61
2021/08/19 01:15:44;;;;;;;41.35;16.82;;;;;;;21.72;80.04;100366.81;1833828;78;21046;-61
2021/08/19 01:18:13;;;;;;;28.77;12.40;;;;;;;21.68;80.18;100363.57;1884414;76;21088;-61
2021/08/19 01:20:42;;;;;;;28.67;12.37;;;;;;;21.68;80.13;100364.91;1884421;76;21154;-61
2021/08/19 01:23:11;;;;;;;30.80;12.25;;;;;;;21.68;79.97;100368.93;1833960;78;21050;-61
2021/08/19 01:25:40;;;;;;;38.40;14.45;;;;;;;21.68;80.04;100377.47;1884402;76;21156;-61
2021/08/19 01:28:09;;;;;;;25.90;12.47;;;;;;;21.68;80.11;100381.48;1884459;76;21561;-61
2021/08/19 01:30:37;;;;;;;42.05;17.77;;;;;;;21.67;80.28;100387.81;1833804;78;21114;-61
2021/08/19 01:33:06;;;;;;;36.88;16.20;;;;;;;21.67;80.32;100380.65;1884485;76;21171;-61
2021/08/19 01:35:35;;;;;;;35.85;17.17;;;;;;;21.67;80.39;100367.25;1833929;78;21014;-61
2021/08/19 01:38:04;;;;;;;36.10;18.23;;;;;;;21.68;80.42;100368.93;1884589;76;21122;-61
2021/08/19 01:40:33;;;;;;;38.70;17.37;;;;;;;21.69;80.66;100363.06;1833949;78;21058;-61
2021/08/19 01:43:09;;;;;;;35.15;15.13;;;;;;;21.70;80.62;100371.47;1884468;75;21080;-62
2021/08/19 01:45:38;;;;;;;36.60;17.05;;;;;;;21.71;80.45;100374.02;1833997;78;21030;-61
2021/08/19 01:48:07;;;;;;;34.60;13.48;;;;;;;21.73;80.38;100368.52;1884595;76;21524;-62
2021/08/19 01:50:36;;;;;;;22.42;9.40;;;;;;;21.72;80.59;100372.17;1872705;75;21076;-61
2021/08/19 01:53:04;;;;;;;22.05;10.10;;;;;;;21.71;80.52;100373.18;1868413;77;21116;-61
2021/08/19 01:55:33;;;;;;;21.05;9.03;;;;;;;21.71;80.55;100371.84;1869786;77;21100;-61
2021/08/19 01:58:02;;;;;;;25.10;10.65;;;;;;;21.71;80.68;100370.00;1902312;75;21164;-61
2021/08/19 02:00:30;;;;;;;31.68;16.23;;;;;;;21.72;80.59;100373.52;1902416;75;21010;-61
2021/08/19 02:03:01;;;;;;;30.50;14.23;;;;;;;21.74;80.50;100370.20;1902264;75;21141;-61
2021/08/19 02:05:31;;;;;;;31.62;17.02;;;;;;;21.76;80.53;100378.47;1902339;75;21043;-61
2021/08/19 02:07:59;;;;;;;34.50;16.35;;;;;;;21.75;80.53;100378.60;1902332;75;21034;-62
2021/08/19 02:10:28;;;;;;;27.55;13.38;;;;;;;21.75;80.66;100378.60;1902284;75;21039;-61
2021/08/19 02:12:57;;;;;;;24.63;11.40;;;;;;;21.75;80.62;100378.60;1902340;75;21124;-61
2021/08/19 02:15:25;;;;;;;23.98;10.08;;;;;;;21.74;80.59;100379.58;1902254;75;21104;-61
2021/08/19 02:17:54;;;;;;;21.93;9.05;;;;;;;21.74;80.58;100389.79;1902259;75;21128;-61
2021/08/19 02:20:23;;;;;;;25.35;10.38;;;;;;;21.72;80.74;100392.27;1902299;75;21493;-61
2021/08/19 02:22:52;;;;;;;22.02;10.23;;;;;;;21.74;80.67;100401.02;1902184;75;21140;-61
2021/08/19 02:25:21;;;;;;;22.10;9.18;;;;;;;21.76;80.64;100400.38;1902300;75;21128;-61
2021/08/19 02:27:50;;;;;;;26.02;10.95;;;;;;;21.78;80.52;100402.41;1902305;75;21473;-61
2021/08/19 02:30:19;;;;;;;24.40;9.75;;;;;;;21.83;80.35;100408.20;1902249;75;21100;-61
2021/08/19 02:32:55;;;;;;;19.92;8.60;;;;;;;21.84;80.28;100407.23;1902272;75;21062;-61
2021/08/19 02:35:19;;;;;;;24.05;10.10;;;;;;;21.83;80.19;100414.91;1902260;75;21066;-61
2021/08/19 02:37:48;;;;;;;23.83;9.38;;;;;;;21.84;80.10;100412.59;1902282;75;21493;-61
2021/08/19 02:40:17;;;;;;;25.12;9.23;;;;;;;21.85;79.99;100412.93;1902363;75;21124;-61
2021/08/19 02:42:46;;;;;;;21.15;9.35;;;;;;;21.88;79.92;100422.55;1902415;75;21136;-61
2021/08/19 02:45:15;;;;;;;20.90;8.78;;;;;;;21.88;79.87;100434.10;1902222;75;21551;-61
2021/08/19 02:47:43;;;;;;;26.97;10.35;;;;;;;21.90;79.79;100440.66;1902165;75;21602;-61
2021/08/19 02:50:13;;;;;;;21.77;9.70;;;;;;;21.91;79.81;100447.23;1902157;75;21618;-61
2021/08/19 02:52:42;;;;;;;21.20;8.75;;;;;;;21.93;79.74;100450.61;1902245;75;21505;-61
2021/08/19 02:55:11;;;;;;;21.25;9.48;;;;;;;21.94;79.68;100455.47;1902264;75;21063;-61
2021/08/19 02:57:40;;;;;;;23.18;9.03;;;;;;;21.93;79.74;100455.11;1902359;75;21101;-61
2021/08/19 03:00:10;;;;;;;25.43;9.23;;;;;;;21.93;79.85;100459.12;1902157;75;21039;-61
2021/08/19 03:02:39;;;;;;;21.25;9.28;;;;;;;21.91;79.88;100471.35;1902364;75;21003;-61
2021/08/19 03:05:08;;;;;;;26.45;9.05;;;;;;;21.89;79.90;100485.39;1902237;75;21149;-61
2021/08/19 03:07:37;;;;;;;25.35;9.08;;;;;;;21.87;79.95;100483.81;1902259;75;21054;-61
2021/08/19 03:10:07;;;;;;;26.02;9.00;;;;;;;21.85;80.05;100508.07;1902260;75;21071;-61
2021/08/19 03:12:35;;;;;;;23.25;9.30;;;;;;;21.83;80.25;100524.79;1902239;75;21007;-63
2021/08/19 03:15:05;;;;;;;26.12;10.00;;;;;;;21.79;80.41;100543.48;1902265;75;21038;-61
2021/08/19 03:17:34;;;;;;;22.95;9.53;;;;;;;21.80;80.62;100559.92;1902370;75;21039;-61
2021/08/19 03:20:03;;;;;;;26.23;10.32;;;;;;;21.79;80.78;100568.94;1902376;75;21069;-60
2021/08/19 03:22:32;;;;;;;30.75;11.18;;;;;;;21.77;81.03;100576.27;1902253;75;21112;-59
2021/08/19 03:25:00;;;;;;;39.85;12.68;;;;;;;21.76;81.22;100582.59;1902238;75;21035;-59
2021/08/19 03:27:31;;;;;;;42.80;14.53;;;;;;;21.73;81.48;100585.57;1902176;75;21171;-60
2021/08/19 03:29:59;;;;;;;38.95;12.58;;;;;;;21.67;81.84;100586.09;1902369;75;21035;-60
2021/08/19 03:32:28;;;;;;;25.05;9.28;;;;;;;21.61;82.31;100570.56;1902261;75;21042;-60
2021/08/19 03:34:57;;;;;;;24.92;7.83;;;;;;;21.48;82.50;100564.10;1902231;75;21046;-60
2021/08/19 03:37:27;;;;;;;27.40;9.18;;;;;;;21.31;82.59;100566.89;1902272;75;21034;-60
2021/08/19 03:39:55;;;;;;;25.65;7.70;;;;;;;21.18;82.56;100569.28;1902162;75;21517;-60
2021/08/19 03:42:24;;;;;;;18.95;7.17;;;;;;;21.09;82.65;100566.06;1902271;75;21100;-60
2021/08/19 03:44:53;;;;;;;17.57;6.55;;;;;;;21.03;82.70;100563.92;1902308;75;21058;-60
2021/08/19 03:47:21;;;;;;;20.65;6.60;;;;;;;20.97;82.68;100562.63;1902216;75;21132;-60
2021/08/19 03:49:50;;;;;;;21.55;7.53;;;;;;;20.90;82.71;100534.69;1902273;75;21039;-60
2021/08/19 03:52:19;;;;;;;19.77;7.12;;;;;;;20.82;83.01;100533.14;1902112;75;21148;-62
2021/08/19 03:54:49;;;;;;;19.75;8.33;;;;;;;20.73;83.73;100545.50;1902250;75;21046;-61
2021/08/19 03:57:17;;;;;;;23.05;7.78;;;;;;;20.69;83.85;100518.63;1902208;75;21112;-61
2021/08/19 03:59:46;;;;;;;20.77;7.87;;;;;;;20.67;83.90;100529.95;1902321;75;21035;-59
2021/08/19 04:02:15;;;;;;;24.80;8.58;;;;;;;20.69;83.92;100526.66;1902259;75;21051;-59
2021/08/19 04:04:43;;;;;;;17.25;7.70;;;;;;;20.69;83.98;100524.48;1902160;75;21179;-61
2021/08/19 04:07:12;;;;;;;29.80;11.05;;;;;;;20.67;84.26;100543.33;1902243;75;21038;-60
2021/08/19 04:09:40;;;;;;;32.55;11.73;;;;;;;20.62;84.66;100542.89;1902239;75;21038;-60
2021/08/19 04:12:09;;;;;;;34.92;12.65;;;;;;;20.58;85.14;100542.73;1902273;75;21526;-61
2021/08/19 04:14:38;;;;;;;29.52;13.10;;;;;;;20.56;85.51;100529.98;1902202;75;21117;-61
2021/08/19 04:17:07;;;;;;;28.98;12.25;;;;;;;20.55;86.05;100524.30;1902194;75;21108;-61
2021/08/19 04:19:36;;;;;;;31.60;12.05;;;;;;;20.56;86.42;100517.95;1902109;75;21062;-60
2021/08/19 04:22:05;;;;;;;32.03;11.12;;;;;;;20.55;86.83;100517.61;1902204;75;21066;-60
2021/08/19 04:24:33;;;;;;;25.00;10.50;;;;;;;20.55;87.12;100519.78;1902177;75;21557;-61
2021/08/19 04:27:02;;;;;;;23.52;9.45;;;;;;;20.54;87.43;100522.58;1902313;75;21031;-61
2021/08/19 04:29:33;;;;;;;19.20;7.95;;;;;;;20.49;87.90;100520.31;1902333;75;21015;-60
2021/08/19 04:32:04;;;;;;;16.82;8.13;;;;;;;20.42;88.27;100514.62;1902092;75;21108;-61
2021/08/19 04:34:33;;;;;;;19.15;7.35;;;;;;;20.36;88.30;100516.95;1902350;75;21039;-61
2021/08/19 04:37:01;;;;;;;16.60;7.60;;;;;;;20.29;88.25;100510.41;1902244;75;21043;-61
2021/08/19 04:39:30;;;;;;;12.63;5.35;;;;;;;20.17;87.90;100492.25;1902237;75;21027;-61
2021/08/19 04:41:59;;;;;;;8.53;3.60;;;;;;;20.03;87.40;100482.22;1902234;75;21116;-61
2021/08/19 04:44:27;;;;;;;6.10;2.83;;;;;;;19.87;86.03;100467.09;1902113;75;21098;-61
2021/08/19 04:46:56;;;;;;;6.47;2.67;;;;;;;19.74;85.39;100459.74;1902190;75;21099;-61
2021/08/19 04:49:25;;;;;;;7.47;3.33;;;;;;;19.60;85.05;100446.97;1902333;75;21023;-61
2021/08/19 04:51:54;;;;;;;8.00;3.10;;;;;;;19.50;84.51;100451.38;1901720;75;21184;-61
2021/08/19 04:54:22;;;;;;;8.45;3.37;;;;;;;19.44;84.87;100454.53;1895673;76;21067;-61
2021/08/19 04:56:51;;;;;;;10.05;4.12;;;;;;;19.42;85.16;100453.80;1895586;76;21076;-62
2021/08/19 04:59:20;;;;;;;6.85;3.60;;;;;;;19.38;85.34;100448.36;1895653;76;20999;-61
2021/08/19 05:01:49;;;;;;;16.23;9.43;;;;;;;19.37;85.24;100461.36;1895647;76;21039;-61
2021/08/19 05:04:18;;;;;;;12.88;4.70;;;;;;;19.37;85.18;100452.02;1895649;76;21486;-61
2021/08/19 05:06:46;;;;;;;14.55;7.17;;;;;;;19.37;85.35;100451.52;1895623;76;21109;-61
2021/08/19 05:09:15;;;;;;;9.48;4.85;;;;;;;19.38;85.46;100450.53;1895939;75;21116;-61
2021/08/19 05:11:44;;;;;;;6.70;3.00;;;;;;;19.38;85.56;100451.03;1895695;76;21178;-61
2021/08/19 05:14:13;;;;;;;9.48;4.90;;;;;;;19.35;85.55;100445.93;1895714;76;21140;-61
2021/08/19 05:16:42;;;;;;;10.45;4.30;;;;;;;19.33;85.88;100450.08;1895931;76;21071;-61
2021/08/19 05:19:11;;;;;;;8.08;3.08;;;;;;;19.33;86.02;100439.87;1895783;76;21063;-61
2021/08/19 05:21:40;;;;;;;10.93;4.17;;;;;;;19.31;85.68;100438.69;1895781;76;21067;-61
2021/08/19 05:24:08;;;;;;;6.87;2.92;;;;;;;19.31;85.53;100442.69;1895679;76;21475;-61
2021/08/19 05:26:37;;;;;;;12.33;4.62;;;;;;;19.31;85.56;100441.81;1895716;76;21105;-61
2021/08/19 05:29:07;;;;;;;12.73;4.37;;;;;;;19.32;85.75;100446.20;1895761;76;21585;-61
2021/08/19 05:31:36;;;;;;;15.10;4.12;;;;;;;19.27;86.12;100443.87;1895779;76;21019;-61
2021/08/19 05:34:08;;;;;;;10.72;4.80;;;;;;;19.23;86.32;100444.61;1895790;76;21062;-61
2021/08/19 05:36:35;;;;;;;10.60;4.15;;;;;;;19.21;86.48;100451.05;1895673;75;21098;-61
2021/08/19 05:39:04;;;;;;;8.78;3.90;;;;;;;19.19;86.67;100429.83;1895745;76;21498;-61
2021/08/19 05:41:33;;;;;;;11.35;5.10;;;;;;;19.20;86.61;100430.20;1895770;76;21494;-61
2021/08/19 05:44:02;;;;;;;14.55;5.40;;;;;;;19.19;86.73;100425.82;1895733;76;21055;-61
2021/08/19 05:46:31;;;;;;;11.10;3.95;;;;;;;19.23;86.71;100423.75;1895710;76;21042;-61
2021/08/19 05:49:00;;;;;;;12.50;4.42;;;;;;;19.26;86.66;100413.68;1895689;76;21596;-62
2021/08/19 05:51:29;;;;;;;10.40;4.20;;;;;;;19.29;86.57;100408.56;1895712;76;21488;-61
2021/08/19 05:53:58;;;;;;;12.68;4.50;;;;;;;19.29;86.57;100405.90;1899798;75;21082;-61
2021/08/19 05:56:27;;;;;;;7.75;3.60;;;;;;;19.25;86.74;100402.63;1902304;75;21062;-61
2021/08/19 05:58:56;;;;;;;8.73;4.12;;;;;;;19.26;86.68;100413.68;1902524;75;21047;-61
2021/08/19 06:01:25;;;;;;;11.93;3.80;;;;;;;19.25;86.54;100413.80;1902264;75;21102;-62
2021/08/19 06:03:54;;;;;;;10.30;3.72;;;;;;;19.24;86.45;100404.95;1902240;75;21117;-61
2021/08/19 06:06:22;;;;;;;9.80;3.30;;;;;;;19.23;86.55;100398.40;1902380;75;21034;-61
2021/08/19 06:08:51;;;;;;;11.50;3.85;;;;;;;19.24;86.74;100396.95;1902281;75;21004;-61
2021/08/19 06:11:19;;;;;;;13.75;5.03;;;;;;;19.29;86.72;100399.22;1902284;75;21105;-61
2021/08/19 06:13:48;;;;;;;8.38;3.55;;;;;;;19.32;86.65;100407.49;1902237;75;21055;-61
2021/08/19 06:16:17;;;;;;;10.70;3.87;;;;;;;19.33;86.61;100404.70;1902228;75;21489;-61
2021/08/19 06:18:46;;;;;;;9.58;4.28;;;;;;;19.36;86.52;100404.92;1902258;75;21062;-61
2021/08/19 06:21:15;;;;;;;7.70;3.60;;;;;;;19.38;86.53;100394.97;1902328;75;21577;-61
2021/08/19 06:23:43;;;;;;;11.70;3.52;;;;;;;19.39;86.54;100400.69;1902244;75;21062;-61
2021/08/19 06:26:12;;;;;;;13.30;5.87;;;;;;;19.36;86.65;100384.91;1902277;75;21046;-61
2021/08/19 06:28:40;;;;;;;10.50;6.03;;;;;;;19.35;86.64;100367.17;1902200;75;21035;-62
2021/08/19 06:31:09;;;;;;;12.47;8.73;;;;;;;19.39;86.60;100361.97;1902267;75;21022;-61
2021/08/19 06:33:38;;;;;;;11.20;5.58;;;;;;;19.41;86.74;100349.34;1902256;75;21047;-61
2021/08/19 06:36:07;;;;;;;10.63;5.08;;;;;;;19.43;86.74;100348.23;1902274;75;21046;-61
2021/08/19 06:38:36;;;;;;;6.62;3.02;;;;;;;19.46;86.79;100340.47;1902286;75;21035;-61
2021/08/19 06:41:04;;;;;;;6.55;3.12;;;;;;;19.46;86.76;100333.80;1902215;75;21034;-62
2021/08/19 06:43:33;;;;;;;11.05;3.95;;;;;;;19.44;86.45;100325.91;1902364;75;21031;-61
2021/08/19 06:46:02;;;;;;;13.10;6.53;;;;;;;19.47;86.46;100326.13;1902271;75;21046;-61
2021/08/19 06:48:31;;;;;;;10.13;4.35;;;;;;;19.49;86.50;100316.16;1902233;75;21035;-61
2021/08/19 06:50:59;;;;;;;7.65;3.42;;;;;;;19.54;86.51;100320.64;1902286;75;21046;-61
2021/08/19 06:53:28;;;;;;;8.63;3.25;;;;;;;19.58;86.50;100312.73;1901634;75;21087;-61
2021/08/19 06:55:57;;;;;;;6.85;2.75;;;;;;;19.62;86.40;100325.34;1895558;76;21039;-61
2021/08/19 06:58:26;;;;;;;6.67;2.60;;;;;;;19.66;86.32;100324.09;1895914;76;21051;-61
2021/08/19 07:00:56;;;;;;;7.83;2.87;;;;;;;19.68;86.14;100325.69;1895929;76;21156;-61
2021/08/19 07:03:26;;;;;;;8.48;2.87;;;;;;;19.73;85.98;100328.48;1895701;76;21050;-61
2021/08/19 07:05:55;;;;;;;7.05;2.58;;;;;;;19.76;85.85;100322.89;1895712;76;21086;-61
2021/08/19 07:08:23;;;;;;;7.17;3.17;;;;;;;19.79;85.53;100323.95;1895645;76;21164;-61
2021/08/19 07:10:52;;;;;;;6.33;2.70;;;;;;;19.80;85.29;100331.84;1895708;76;21007;-61
2021/08/19 07:13:21;;;;;;;11.10;4.70;;;;;;;19.82;85.26;100342.40;1895667;75;21498;-61
2021/08/19 07:15:50;;;;;;;7.80;3.35;;;;;;;19.85;85.46;100344.32;1895809;76;21035;-61
2021/08/19 07:18:20;;;;;;;8.80;4.10;;;;;;;19.91;85.52;100352.31;1895699;75;21023;-61
2021/08/19 07:20:49;;;;;;;9.75;3.60;;;;;;;19.98;85.49;100366.84;1895574;76;21098;-62
2021/08/19 07:23:18;;;;;;;10.38;4.08;;;;;;;20.10;85.47;100384.99;1895693;76;21575;-61
2021/08/19 07:25:48;;;;;;;9.63;3.33;;;;;;;20.20;85.48;100395.27;1895677;76;21063;-61
2021/08/19 07:28:17;;;;;;;10.20;3.90;;;;;;;20.32;85.57;100409.91;1895671;75;21494;-61
2021/08/19 07:30:45;;;;;;;6.75;3.05;;;;;;;20.42;85.64;100412.16;1895750;76;21160;-61
2021/08/19 07:33:17;;;;;;;7.92;3.42;;;;;;;20.51;85.62;100410.03;1895614;76;21067;-62
2021/08/19 07:35:46;;;;;;;7.03;2.90;;;;;;;20.63;85.49;100406.81;1895720;75;21094;-61
2021/08/19 07:38:17;;;;;;;8.83;3.58;;;;;;;20.74;85.28;100404.05;1895780;76;21035;-61
2021/08/19 07:40:46;;;;;;;6.17;3.30;;;;;;;20.85;84.92;100406.28;1895703;75;21011;-61
2021/08/19 07:43:15;;;;;;;7.03;3.47;;;;;;;20.98;84.71;100412.25;1895822;76;21043;-61
2021/08/19 07:45:43;;;;;;;11.45;4.00;;;;;;;21.16;84.55;100422.66;1895615;76;21039;-61
2021/08/19 07:48:14;;;;;;;8.85;3.77;;;;;;;21.32;84.42;100427.52;1895742;76;21148;-61
2021/08/19 07:50:43;;;;;;;9.28;3.90;;;;;;;21.51;84.25;100427.23;1895815;76;21039;-61
2021/08/19 07:53:13;;;;;;;7.62;3.60;;;;;;;21.68;84.10;100427.03;1895676;76;21494;-61
2021/08/19 07:55:41;;;;;;;8.08;3.80;;;;;;;21.81;83.80;100432.97;1895714;76;21168;-61
2021/08/19 07:58:10;;;;;;;5.20;2.77;;;;;;;21.96;83.55;100432.89;1895679;76;21043;-61
2021/08/19 08:00:39;;;;;;;12.50;6.20;;;;;;;22.14;83.30;100442.92;1895701;76;21082;-61
2021/08/19 08:03:08;;;;;;;7.97;3.83;;;;;;;22.31;82.97;100448.91;1895794;76;21027;-61
2021/08/19 08:05:37;;;;;;;8.10;3.77;;;;;;;22.47;82.66;100447.50;1895695;76;21124;-61
2021/08/19 08:08:10;;;;;;;7.30;3.52;;;;;;;22.57;82.31;100451.50;1895657;76;21537;-61
2021/08/19 08:10:42;;;;;;;8.25;3.65;;;;;;;22.73;82.05;100449.05;1895884;76;21105;-61
2021/08/19 08:13:12;;;;;;;6.50;3.20;;;;;;;22.94;81.61;100440.78;1895581;76;21458;-61
2021/08/19 08:15:41;;;;;;;5.95;3.35;;;;;;;23.12;81.01;100444.41;1895668;76;21032;-61
2021/08/19 08:18:15;;;;;;;7.60;3.22;;;;;;;23.30;80.36;100440.94;1895657;76;21477;-61
2021/08/19 08:20:46;;;;;;;6.62;2.92;;;;;;;23.49;79.78;100420.66;1895695;75;21101;-61
2021/08/19 08:23:19;;;;;;;6.03;2.80;;;;;;;23.72;79.28;100422.92;1895641;76;21097;-61
2021/08/19 08:25:45;;;;;;;4.90;2.40;;;;;;;23.93;78.60;100422.63;1895635;75;21070;-61
2021/08/19 08:28:26;;;;;;;6.55;2.75;;;;;;;24.11;77.73;100421.76;1895631;76;21131;-61
2021/08/19 08:30:51;;;;;;;7.17;2.85;;;;;;;24.31;76.67;100414.34;1895890;75;21039;-61
2021/08/19 08:33:21;;;;;;;7.15;3.00;;;;;;;24.47;75.33;100406.39;1895665;76;21502;-61
2021/08/19 08:35:51;;;;;;;7.80;3.55;;;;;;;24.75;74.82;100398.17;1895606;75;21035;-62
2021/08/19 08:38:22;;;;;;;6.58;2.95;;;;;;;25.07;74.49;100379.98;1895769;76;21019;-61
2021/08/19 08:40:53;;;;;;;5.53;2.90;;;;;;;25.32;73.47;100380.91;1895654;76;21031;-61
2021/08/19 08:43:23;;;;;;;8.33;3.20;;;;;;;25.49;72.34;100380.47;1895750;76;21109;-61
2021/08/19 08:45:54;;;;;;;6.25;3.22;;;;;;;25.79;71.73;100380.31;1895651;76;21518;-61
2021/08/19 08:48:25;;;;;;;8.05;2.70;;;;;;;26.03;70.74;100379.19;1895557;76;20999;-61
2021/08/19 08:50:58;;;;;;;7.50;2.90;;;;;;;26.25;70.02;100378.48;1895644;76;21132;-61
2021/08/19 08:53:27;;;;;;;5.58;2.62;;;;;;;26.36;68.57;100382.68;1895800;76;21062;-61
2021/08/19 08:55:56;;;;;;;6.08;2.80;;;;;;;26.52;68.00;100384.00;1895539;75;21164;-61
2021/08/19 08:58:24;;;;;;;5.90;2.90;;;;;;;26.79;67.58;100371.10;1895751;76;21455;-61
2021/08/19 09:00:54;;;;;;;5.50;2.60;;;;;;;27.08;66.98;100366.94;1895565;76;21555;-62
2021/08/19 09:03:23;;;;;;;5.72;2.42;;;;;;;27.16;64.88;100370.41;1895642;76;21521;-61
2021/08/19 09:05:53;;;;;;;5.05;2.70;;;;;;;27.32;64.39;100367.34;1895678;76;21087;-61
2021/08/19 09:08:28;;;;;;;6.60;3.12;;;;;;;27.52;64.33;100374.48;1895590;76;21032;-61
2021/08/19 09:10:59;;;;;;;9.00;2.75;;;;;;;27.83;64.06;100375.77;1895608;76;21350;-61
2021/08/19 09:13:30;;;;;;;6.03;2.80;;;;;;;28.23;63.89;100382.37;1895528;76;21179;-62
2021/08/19 09:16:17;;;;;;;9.08;3.47;;;;;;;28.60;63.55;100380.66;1895582;76;21047;-61
2021/08/19 09:18:46;;;;;;;6.97;3.12;;;;;;;28.92;62.90;100394.34;1863506;77;21142;-61
2021/08/19 09:21:26;;;;;;;6.78;3.62;;;;;;;29.11;61.72;100407.81;1862085;77;21076;-61
2021/08/19 09:24:14;;;;;;;7.05;3.30;;;;;;;29.13;61.27;100403.56;1861845;76;21126;-62
2021/08/19 09:26:44;;;;;;;7.03;3.50;;;;;;;29.24;60.67;100417.48;1861979;77;21050;-61
2021/08/19 09:29:21;;;;;;;7.30;3.77;;;;;;;29.19;60.44;100414.50;1861935;77;21122;-61
2021/08/19 09:31:53;;;;;;;11.08;3.80;;;;;;;29.22;60.47;100415.48;1861952;77;21046;-61
2021/08/19 09:34:22;;;;;;;8.93;4.47;;;;;;;29.40;60.42;100413.72;1861875;76;21052;-61
2021/08/19 09:37:05;;;;;;;10.10;4.40;;;;;;;29.77;59.64;100409.13;1861975;77;21069;-61
2021/08/19 09:39:38;;;;;;;;;;;;;;;30.06;59.27;100411.89;1864829;77;21084;-61
2021/08/19 09:42:06;;;;;;;;;;;;;;;30.45;59.31;100416.80;1898443;76;20149;-61
2021/08/19 09:44:41;;;;;;;10.70;4.37;;;;;;;30.78;59.27;100411.61;1895726;76;20127;-61
2021/08/19 09:47:31;;;;;;;8.68;3.95;;;;;;;31.10;57.75;100406.55;1861941;77;21117;-61
2021/08/19 09:50:17;;;;;;;7.05;4.00;;;;;;;31.38;56.65;100400.17;1861947;77;21018;-61
2021/08/19 09:52:50;;;;;;;10.20;4.30;;;;;;;31.38;54.66;100392.01;1861940;77;21053;-61
2021/08/19 09:55:27;;;;;;;9.45;4.25;;;;;;;31.06;55.58;100384.90;1862037;77;20998;-62
2021/08/19 09:57:57;;;;;;;8.18;4.10;;;;;;;31.15;55.49;100380.96;1877212;76;21538;-61
2021/08/19 10:00:28;;;;;;;6.70;3.83;;;;;;;31.01;55.23;100377.04;1877330;76;21022;-61
2021/08/19 10:02:57;;;;;;;7.53;3.72;;;;;;;30.40;56.33;100386.71;1877211;76;21048;-61
2021/08/19 10:05:27;;;;;;;8.88;4.45;;;;;;;29.82;57.10;100382.76;1877240;76;21098;-61
2021/08/19 10:07:56;;;;;;;7.40;4.28;;;;;;;29.31;58.01;100378.76;1877188;76;21479;-62
2021/08/19 10:10:25;;;;;;;10.48;4.62;;;;;;;28.87;58.84;100375.92;1877223;76;21022;-61
2021/08/19 10:12:57;;;;;;;10.15;4.83;;;;;;;28.52;59.59;100376.67;1877222;76;21143;-61
2021/08/19 10:15:26;;;;;;;10.55;4.05;;;;;;;28.13;60.56;100375.87;1877333;76;21021;-61
2021/08/19 10:17:59;;;;;;;8.73;4.37;;;;;;;27.81;61.37;100366.96;1877222;76;21496;-61
2021/08/19 10:20:30;;;;;;;9.08;4.83;;;;;;;27.54;62.10;100374.62;1877297;76;21113;-61
2021/08/19 10:23:01;;;;;;;10.72;4.53;;;;;;;27.29;62.96;100369.03;1877196;76;21034;-61
2021/08/19 10:25:30;;;;;;;7.97;4.47;;;;;;;27.08;63.58;100372.34;1877210;76;21069;-61
2021/08/19 10:28:20;;;;;;;9.30;4.90;;;;;;;26.88;64.39;100370.05;1877211;76;21514;-61
2021/08/19 10:30:55;;;;;;;8.15;4.03;;;;;;;26.67;65.01;100369.30;1876630;75;21517;-61
2021/08/19 10:33:42;;;;;;;9.25;4.72;;;;;;;26.36;65.20;100378.12;1877187;76;21077;-61
2021/08/19 10:36:17;;;;;;;9.20;4.80;;;;;;;26.13;65.42;100402.25;1877202;76;21502;-61
2021/08/19 10:38:45;;;;;;;9.68;4.58;;;;;;;25.91;65.77;100409.13;1877197;76;21048;-61
2021/08/19 10:41:35;;;;;;;10.48;5.03;;;;;;;25.74;66.13;100406.93;1877128;76;21077;-61
2021/08/19 10:44:06;;;;;;;10.60;5.65;;;;;;;25.59;67.04;100412.65;1875368;76;21076;-61
2021/08/19 10:46:46;;;;;;;10.18;5.22;;;;;;;25.33;68.66;100427.07;1856070;77;21031;-60
2021/08/19 10:49:40;;;;;;;12.53;5.22;;;;;;;25.06;71.42;100429.45;1888535;76;21111;-60
2021/08/19 10:52:16;;;;;;;13.35;6.37;;;;;;;24.66;73.28;100429.61;1856046;77;21028;-60
2021/08/19 10:54:50;;;;;;;10.03;4.75;;;;;;;24.28;74.36;100419.56;1888577;76;21044;-60
2021/08/19 10:57:32;;;;;;;12.13;5.00;;;;;;;24.05;73.98;100407.95;1854951;77;21091;-60
2021/08/19 11:00:10;;;;;;;13.43;7.10;;;;;;;23.96;73.73;100399.95;1885832;76;21028;-61
2021/08/19 11:02:43;;;;;;;13.83;5.65;;;;;;;23.84;73.71;100402.89;1853650;77;21085;-60
2021/08/19 11:05:14;;;;;;;11.88;5.92;;;;;;;23.71;73.97;100391.66;1885758;76;21460;-60
2021/08/19 11:07:53;;;;;;;9.25;4.22;;;;;;;23.61;74.24;100376.09;1853651;77;21063;-60
2021/08/19 11:10:35;;;;;;;11.85;5.28;;;;;;;23.51;74.41;100377.00;1885658;76;21506;-60
2021/08/19 11:13:09;;;;;;;8.73;4.20;;;;;;;23.41;74.50;100373.56;1853670;77;21060;-60
2021/08/19 11:15:46;;;;;;;10.48;4.75;;;;;;;23.28;74.55;100382.50;1885820;76;21165;-60
2021/08/19 11:18:33;;;;;;;11.43;4.10;;;;;;;23.20;74.72;100371.64;1853634;77;21531;-60
2021/08/19 11:21:04;;;;;;;9.03;3.45;;;;;;;23.07;75.20;100374.21;1885756;76;21115;-60
2021/08/19 11:23:41;;;;;;;9.13;4.10;;;;;;;22.88;75.50;100382.32;1853647;77;21109;-60
2021/08/19 11:26:19;;;;;;;11.93;4.28;;;;;;;22.74;75.60;100382.29;1885806;75;21076;-60
2021/08/19 11:28:50;;;;;;;11.73;4.37;;;;;;;22.64;76.00;100378.82;1853671;77;21157;-60
2021/08/19 11:31:21;;;;;;;8.98;3.52;;;;;;;22.57;76.58;100380.39;1885988;76;21103;-61
2021/08/19 11:34:02;;;;;;;10.82;3.17;;;;;;;22.58;76.64;100380.25;1853771;77;21047;-60